createdAt,value
2023-05-21T18:34:28.493Z,35.25
2023-05-21T18:57:02.331Z,35.21
2023-05-21T19:00:00.258Z,35.07
2023-05-21T19:03:29.637Z,35.18
2023-05-21T19:12:24.371Z,35.60
2023-05-21T19:16:31.973Z,35.43
2023-05-21T19:19:46.015Z,35.82
2023-05-21T19:23:29.428Z,35.66
2023-05-21T19:26:23.206Z,35.90
2023-05-21T19:29:48.441Z,36.02
2023-05-21T19:36:20.300Z,36.02
2023-05-21T19:39:14.124Z,35.90
2023-05-21T19:42:10.987Z,35.90
2023-05-21T19:45:25.960Z,36.02
2023-05-21T19:52:36.022Z,36.19
2023-05-21T19:55:23.271Z,36.13
2023-05-21T19:58:13.853Z,36.29
2023-05-21T20:01:23.025Z,36.09
2023-05-21T20:04:21.994Z,36.22
2023-05-21T20:12:35.789Z,36.37
2023-05-21T20:30:08.296Z,36.54
2023-05-21T20:33:01.813Z,36.83
2023-05-21T20:35:57.876Z,36.91
2023-05-21T20:39:35.396Z,37.04
2023-05-21T20:43:24.084Z,37.28
2023-05-21T20:46:23.764Z,37.27
2023-05-21T20:49:19.973Z,37.29
2023-05-21T20:52:31.001Z,37.45
2023-05-21T21:04:55.451Z,37.77
2023-05-21T21:08:18.623Z,37.94
2023-05-21T21:14:55.478Z,38.10
2023-05-21T21:41:47.762Z,38.78
2023-05-21T21:44:48.487Z,38.61
2023-05-21T21:48:07.056Z,38.89
2023-05-21T21:55:27.940Z,39.58
2023-05-21T21:59:59.430Z,38.85
2023-05-21T22:03:39.189Z,38.89
2023-05-21T22:06:50.880Z,39.01
2023-05-21T22:10:05.608Z,39.02
2023-05-21T22:13:03.139Z,38.75
2023-05-21T22:15:58.261Z,39.01
2023-05-21T22:18:46.508Z,38.84
2023-05-21T22:21:37.507Z,38.84
2023-05-21T22:24:39.540Z,38.66
2023-05-21T22:27:37.205Z,38.76
2023-05-21T22:30:34.159Z,38.67
2023-05-21T22:33:22.262Z,38.77
2023-05-21T22:36:10.302Z,38.83
2023-05-21T22:39:05.892Z,38.90
2023-05-21T22:42:08.524Z,38.96
2023-05-21T22:45:09.766Z,39.11
2023-05-21T22:47:57.702Z,39.09
2023-05-21T22:51:01.769Z,38.91
2023-05-21T22:57:56.337Z,39.26
2023-05-21T23:01:43.954Z,39.67
2023-05-21T23:04:47.127Z,39.42
2023-05-21T23:07:41.098Z,39.26
2023-05-21T23:10:42.887Z,39.31
2023-05-21T23:13:40.485Z,39.38
2023-05-21T23:16:28.014Z,39.50
2023-05-21T23:19:21.908Z,39.59
2023-05-21T23:22:09.587Z,39.60
2023-05-21T23:25:00.102Z,39.65
2023-05-21T23:27:47.764Z,39.58
2023-05-21T23:30:35.693Z,39.70
2023-05-21T23:33:23.628Z,39.57
2023-05-21T23:36:11.183Z,39.70
2023-05-21T23:39:01.730Z,39.77
2023-05-21T23:41:49.288Z,39.96
2023-05-21T23:44:39.531Z,39.94
2023-05-21T23:48:08.762Z,40.32
2023-05-21T23:51:03.763Z,39.94
2023-05-21T23:54:01.769Z,40.37
2023-05-21T23:57:01.526Z,40.18
2023-05-21T23:59:51.740Z,40.14
